Papere Vagabonde

Aviosuperficie Caposile LIKI

Pista 04


Pista 22

Le immagini vengono aggiornate ogni minuto
Cliccare sull'immagine per l'ingrandimento.

METAR LIPZ

LIPZ 271020Z 09013KT CAVOK 17/06 Q1026 NOSIG

TAF LIPZ 270500Z 2706/2812 VRB05KT 4000 BR NSC
  BECMG 2707/2709 07013KT 7000


ATTENZIONE: la nuova stazione meteo verrà installata fra pochi giorni, attualmente i dati non sono reali.
PAY ATTENTION: a new weather station will be aviable within few days, weather data are not real.


      


Alba: 06:53
Tramonto: 17:50